Time;durP1;ratioP1;P1;durP2;ratioP2;P2;SDS_P1;SDS_P2;PMS_P1;PMS_P2;Temp;Humidity;BMP_temperature;BMP_pressure;BME280_temperature;BME280_humidity;BME280_pressure;Samples;Min_cycle;Max_cycle;Signal;HPM_P1;HPM_P2
2023/12/28 00:00:57;;;;;;;2.77;2.53;;;16.60;68.80;;;;;;5061057;28;20434;-73
2023/12/28 00:03:26;;;;;;;2.70;2.53;;;16.50;69.20;;;;;;5055395;28;20446;-73
2023/12/28 00:05:54;;;;;;;2.60;2.40;;;16.50;68.80;;;;;;5067648;28;20446;-73
2023/12/28 00:08:23;;;;;;;2.60;2.40;;;16.50;68.90;;;;;;5065043;28;20466;-73
2023/12/28 00:10:51;;;;;;;3.10;2.90;;;16.50;69.10;;;;;;5071328;28;20503;-74
2023/12/28 00:13:19;;;;;;;3.77;2.77;;;16.60;69.10;;;;;;5059383;28;20528;-74
2023/12/28 00:15:47;;;;;;;2.30;2.10;;;16.50;68.90;;;;;;5058274;28;20520;-73
2023/12/28 00:18:15;;;;;;;2.87;2.53;;;16.60;69.00;;;;;;5057002;28;20537;-73
2023/12/28 00:20:43;;;;;;;2.90;2.57;;;16.60;68.70;;;;;;5064594;28;20438;-73
2023/12/28 00:23:11;;;;;;;2.40;2.20;;;16.60;68.80;;;;;;5056971;28;20465;-74
2023/12/28 00:25:40;;;;;;;2.40;2.30;;;16.60;69.20;;;;;;5063938;28;20497;-73
2023/12/28 00:28:08;;;;;;;2.53;2.33;;;16.60;69.20;;;;;;5060782;28;20493;-73
2023/12/28 00:30:36;;;;;;;2.77;2.57;;;16.60;69.30;;;;;;5062858;28;20537;-74
2023/12/28 00:33:04;;;;;;;2.67;2.47;;;16.60;69.00;;;;;;5054707;28;20473;-73
2023/12/28 00:35:32;;;;;;;3.10;2.53;;;16.60;69.50;;;;;;5054661;28;20504;-73
2023/12/28 00:38:00;;;;;;;2.87;2.67;;;16.60;69.10;;;;;;5054783;28;21024;-74
2023/12/28 00:40:29;;;;;;;3.20;2.70;;;16.60;69.20;;;;;;5070181;28;20449;-73
2023/12/28 00:42:58;;;;;;;2.53;2.40;;;16.70;69.30;;;;;;5068023;28;20495;-73
2023/12/28 00:45:25;;;;;;;2.77;2.60;;;16.60;69.40;;;;;;5065072;28;20471;-73
2023/12/28 00:47:56;;;;;;;3.73;2.47;;;16.60;69.20;;;;;;5060506;28;20474;-73
2023/12/28 00:50:27;;;;;;;4.30;2.93;;;16.60;69.20;;;;;;5063376;28;20533;-73
2023/12/28 00:52:55;;;;;;;4.43;2.67;;;16.60;68.90;;;;;;5064323;28;20473;-73
2023/12/28 00:55:23;;;;;;;3.87;2.83;;;16.60;69.20;;;;;;5067524;28;20473;-73
2023/12/28 00:57:51;;;;;;;3.43;2.70;;;16.70;69.30;;;;;;5065335;28;20498;-73
2023/12/28 01:00:20;;;;;;;2.60;2.40;;;16.60;69.40;;;;;;5066253;28;20501;-73
2023/12/28 01:02:49;;;;;;;2.53;2.43;;;16.70;69.70;;;;;;5062228;28;20446;-73
2023/12/28 01:05:16;;;;;;;2.40;2.20;;;16.70;69.40;;;;;;5060888;28;20548;-73
2023/12/28 01:07:44;;;;;;;3.37;2.43;;;16.70;69.60;;;;;;5061041;28;20477;-72
2023/12/28 01:10:12;;;;;;;2.87;2.67;;;16.70;69.80;;;;;;5072557;28;20480;-73
2023/12/28 01:12:40;;;;;;;2.77;2.57;;;16.80;69.50;;;;;;5067587;28;20478;-73
2023/12/28 01:15:09;;;;;;;3.30;2.47;;;16.80;70.30;;;;;;5052811;28;20454;-73
2023/12/28 01:17:38;;;;;;;3.30;2.50;;;16.70;69.70;;;;;;5064580;28;20472;-72
2023/12/28 01:20:08;;;;;;;2.37;2.27;;;16.80;69.70;;;;;;5069568;28;20441;-73
2023/12/28 01:22:36;;;;;;;2.33;2.17;;;16.80;69.80;;;;;;5064222;28;20495;-73
2023/12/28 01:25:04;;;;;;;3.33;2.80;;;16.80;69.70;;;;;;5062430;28;20470;-73
2023/12/28 01:27:32;;;;;;;2.83;2.63;;;16.80;69.80;;;;;;5069388;28;20515;-73
2023/12/28 01:30:00;;;;;;;3.40;2.60;;;16.80;69.60;;;;;;5065678;28;20446;-73
2023/12/28 01:32:28;;;;;;;4.50;3.00;;;16.80;70.00;;;;;;5063638;28;20477;-73
2023/12/28 01:34:57;;;;;;;2.90;2.60;;;16.80;69.70;;;;;;5060126;28;20434;-74
2023/12/28 01:37:25;;;;;;;2.57;2.47;;;16.80;69.50;;;;;;5052720;28;20466;-74
2023/12/28 01:39:53;;;;;;;2.60;2.40;;;16.80;69.80;;;;;;5055920;28;20454;-74
2023/12/28 01:42:21;;;;;;;3.10;2.77;;;16.80;69.80;;;;;;5071485;28;20448;-74
2023/12/28 01:44:49;;;;;;;2.73;2.53;;;16.80;70.50;;;;;;5055998;28;20469;-74
2023/12/28 01:47:18;;;;;;;3.07;2.87;;;16.80;69.80;;;;;;5057070;28;20477;-74
2023/12/28 01:49:46;;;;;;;3.23;2.90;;;16.80;69.90;;;;;;5065461;28;20500;-74
2023/12/28 01:52:15;;;;;;;2.83;2.63;;;16.80;69.70;;;;;;5054666;28;20442;-74
2023/12/28 01:54:43;;;;;;;3.33;3.00;;;16.80;70.20;;;;;;5061255;28;20438;-74
2023/12/28 01:57:11;;;;;;;2.77;2.57;;;16.80;69.90;;;;;;5052739;28;20458;-73
2023/12/28 01:59:39;;;;;;;2.00;1.90;;;16.80;69.70;;;;;;5055910;28;20458;-74
2023/12/28 02:02:07;;;;;;;2.83;2.30;;;16.80;70.00;;;;;;5061889;28;20552;-74
2023/12/28 02:04:35;;;;;;;2.70;2.50;;;16.80;70.00;;;;;;5071515;28;20477;-74
2023/12/28 02:07:04;;;;;;;2.73;2.50;;;16.80;70.00;;;;;;5069929;28;20474;-74
2023/12/28 02:09:33;;;;;;;9.30;2.90;;;16.80;69.90;;;;;;5061721;28;20453;-74
2023/12/28 02:12:01;;;;;;;3.57;3.00;;;16.80;69.80;;;;;;5061593;28;20439;-74
2023/12/28 02:14:29;;;;;;;2.73;2.53;;;16.80;70.20;;;;;;5055305;28;20461;-75
2023/12/28 02:17:01;;;;;;;2.80;2.60;;;16.80;69.90;;;;;;5056344;28;20455;-74
2023/12/28 02:19:33;;;;;;;3.07;2.67;;;16.80;70.30;;;;;;5056794;28;20462;-74
2023/12/28 02:22:01;;;;;;;2.57;2.37;;;16.80;69.90;;;;;;5073293;28;20458;-74
2023/12/28 02:24:29;;;;;;;3.03;2.83;;;16.80;70.10;;;;;;5063529;28;20446;-74
2023/12/28 02:26:59;;;;;;;3.10;2.80;;;16.80;70.10;;;;;;5074424;28;20461;-74
2023/12/28 02:29:28;;;;;;;3.00;2.50;;;16.90;70.00;;;;;;5061659;28;20516;-74
2023/12/28 02:31:59;;;;;;;3.50;3.20;;;16.90;70.10;;;;;;5053599;28;20516;-74
2023/12/28 02:34:30;;;;;;;2.57;2.37;;;16.90;70.10;;;;;;5054742;28;20421;-74
2023/12/28 02:36:58;;;;;;;2.80;2.60;;;16.80;70.00;;;;;;5053755;28;20455;-74
2023/12/28 02:39:26;;;;;;;3.10;2.90;;;16.80;70.10;;;;;;5053321;28;20472;-75
2023/12/28 02:41:55;;;;;;;2.50;2.40;;;16.80;69.90;;;;;;5053098;28;20536;-74
2023/12/28 02:44:24;;;;;;;4.50;2.60;;;16.80;69.90;;;;;;5052729;28;20506;-74
2023/12/28 02:46:52;;;;;;;2.57;2.37;;;16.80;70.00;;;;;;5052944;28;20562;-75
2023/12/28 02:49:20;;;;;;;2.90;2.70;;;16.80;69.60;;;;;;5052706;28;20480;-75
2023/12/28 02:51:48;;;;;;;3.63;3.13;;;16.80;70.00;;;;;;5052886;28;20497;-75
2023/12/28 02:54:16;;;;;;;3.10;2.63;;;16.80;70.20;;;;;;5053244;28;20473;-74
2023/12/28 02:56:44;;;;;;;2.73;2.60;;;16.80;69.80;;;;;;5053434;28;20993;-74
2023/12/28 02:59:12;;;;;;;2.73;2.53;;;16.80;70.00;;;;;;5066166;28;20476;-74
2023/12/28 03:01:42;;;;;;;3.40;3.03;;;16.80;69.90;;;;;;5073038;28;20445;-75
2023/12/28 03:04:10;;;;;;;3.23;3.00;;;16.80;69.60;;;;;;5078020;28;20429;-73
2023/12/28 03:06:40;;;;;;;5.33;3.10;;;16.80;69.80;;;;;;5074096;28;20503;-74
2023/12/28 03:09:08;;;;;;;5.03;3.43;;;16.80;70.20;;;;;;5079740;28;20456;-74
2023/12/28 03:11:36;;;;;;;3.70;3.37;;;16.80;70.00;;;;;;5076384;28;20469;-74
2023/12/28 03:14:05;;;;;;;4.20;3.80;;;16.80;70.10;;;;;;5069096;28;20470;-75
2023/12/28 03:16:33;;;;;;;6.20;3.67;;;16.80;69.90;;;;;;5052266;28;20438;-74
2023/12/28 03:19:03;;;;;;;4.90;3.50;;;16.80;70.00;;;;;;5051766;28;20446;-74
2023/12/28 03:21:31;;;;;;;4.10;3.70;;;16.80;70.00;;;;;;5051798;28;20443;-74
2023/12/28 03:23:59;;;;;;;4.10;3.70;;;16.80;70.00;;;;;;5052174;28;20442;-74
2023/12/28 03:26:27;;;;;;;4.00;3.63;;;16.80;69.90;;;;;;5052206;28;20534;-73
2023/12/28 03:28:55;;;;;;;5.77;3.80;;;16.80;70.20;;;;;;5053411;28;20434;-74
2023/12/28 03:31:23;;;;;;;4.63;4.23;;;16.80;69.70;;;;;;5063300;28;20516;-74
2023/12/28 03:33:51;;;;;;;7.30;3.80;;;16.80;69.60;;;;;;5071942;28;20545;-74
2023/12/28 03:36:21;;;;;;;6.17;4.47;;;16.70;69.90;;;;;;5073267;28;20446;-74
2023/12/28 03:38:49;;;;;;;4.87;4.00;;;16.80;70.00;;;;;;5075212;28;20465;-74
2023/12/28 03:41:18;;;;;;;4.03;3.73;;;16.80;69.80;;;;;;5076121;28;20473;-73
2023/12/28 03:43:46;;;;;;;6.27;4.30;;;16.80;70.00;;;;;;5072251;28;20536;-74
2023/12/28 03:46:14;;;;;;;4.17;3.77;;;16.80;69.90;;;;;;5075979;28;20522;-74
2023/12/28 03:48:42;;;;;;;5.30;4.00;;;16.80;69.80;;;;;;5075548;28;20516;-74
2023/12/28 03:51:14;;;;;;;6.43;4.10;;;16.70;70.00;;;;;;5075914;28;20438;-74
2023/12/28 03:53:44;;;;;;;5.07;3.73;;;16.70;69.50;;;;;;5076054;28;20421;-74
2023/12/28 03:56:20;;;;;;;4.70;3.80;;;16.80;70.00;;;;;;5076176;28;20480;-74
2023/12/28 03:58:48;;;;;;;6.00;4.47;;;16.80;69.90;;;;;;5075795;28;20537;-74
2023/12/28 04:01:17;;;;;;;5.83;3.83;;;16.70;69.90;;;;;;5074551;28;20507;-74
2023/12/28 04:03:45;;;;;;;5.07;4.13;;;16.80;70.30;;;;;;5076303;28;20474;-74
2023/12/28 04:06:13;;;;;;;4.10;3.50;;;16.80;69.90;;;;;;5075000;28;20469;-74
2023/12/28 04:08:41;;;;;;;4.50;4.00;;;16.80;70.20;;;;;;5071014;28;20457;-74
2023/12/28 04:11:11;;;;;;;4.10;3.70;;;16.80;70.20;;;;;;5075772;28;20470;-74
2023/12/28 04:13:39;;;;;;;3.83;3.40;;;16.70;70.00;;;;;;5076682;28;20469;-75
2023/12/28 04:16:09;;;;;;;4.73;4.13;;;16.80;70.20;;;;;;5076583;28;20529;-75
2023/12/28 04:18:37;;;;;;;6.17;4.67;;;16.80;70.00;;;;;;5057073;28;20478;-75
2023/12/28 04:21:05;;;;;;;3.70;3.40;;;16.80;69.70;;;;;;5075903;28;20473;-74
2023/12/28 04:23:33;;;;;;;9.83;3.90;;;16.80;70.00;;;;;;5075130;28;20525;-74
2023/12/28 04:26:01;;;;;;;3.93;3.53;;;16.80;69.60;;;;;;5074988;28;20556;-75
2023/12/28 04:28:31;;;;;;;5.53;4.10;;;16.80;69.90;;;;;;5074269;28;20469;-74
2023/12/28 04:30:59;;;;;;;3.93;3.63;;;16.80;69.90;;;;;;5075341;28;20472;-75
2023/12/28 04:33:27;;;;;;;6.20;4.30;;;16.80;70.00;;;;;;5072061;28;20522;-74
2023/12/28 04:35:56;;;;;;;4.40;3.80;;;16.80;69.90;;;;;;5054713;28;20447;-75
2023/12/28 04:38:24;;;;;;;3.53;3.20;;;16.80;69.70;;;;;;5054850;28;20554;-74
2023/12/28 04:40:53;;;;;;;5.00;3.73;;;16.80;69.90;;;;;;5054423;28;20477;-74
2023/12/28 04:43:23;;;;;;;4.87;3.80;;;16.80;69.70;;;;;;5054554;28;20461;-74
2023/12/28 04:45:52;;;;;;;6.63;3.67;;;16.80;70.00;;;;;;5055226;28;20521;-75
2023/12/28 04:48:23;;;;;;;4.00;3.50;;;16.80;69.70;;;;;;5054191;28;20443;-74
2023/12/28 04:50:52;;;;;;;6.10;4.00;;;16.80;69.80;;;;;;5054264;28;20435;-74
2023/12/28 04:53:21;;;;;;;5.10;3.33;;;16.80;69.80;;;;;;5055295;28;20460;-73
2023/12/28 04:55:49;;;;;;;4.10;3.37;;;16.80;69.80;;;;;;5055927;28;20497;-74
2023/12/28 04:58:17;;;;;;;5.93;3.60;;;16.80;69.60;;;;;;5055950;28;20486;-74
2023/12/28 05:00:45;;;;;;;6.83;4.10;;;16.80;69.90;;;;;;5068204;28;20454;-74
2023/12/28 05:03:15;;;;;;;5.03;3.10;;;16.80;69.90;;;;;;5066291;28;20533;-74
2023/12/28 05:05:44;;;;;;;4.43;3.30;;;16.80;69.60;;;;;;5073791;28;20448;-74
2023/12/28 05:08:12;;;;;;;3.37;3.00;;;16.80;69.80;;;;;;5069440;28;20489;-73
2023/12/28 05:10:40;;;;;;;3.30;3.10;;;16.80;69.40;;;;;;5074077;28;20505;-74
2023/12/28 05:13:09;;;;;;;4.40;3.37;;;16.80;69.30;;;;;;5073239;28;20478;-74
2023/12/28 05:15:37;;;;;;;3.73;3.27;;;16.80;69.50;;;;;;5073801;28;20487;-74
2023/12/28 05:18:07;;;;;;;3.63;3.20;;;16.80;69.60;;;;;;5071941;28;20500;-74
2023/12/28 05:20:37;;;;;;;5.10;3.60;;;16.80;69.90;;;;;;5065722;28;20506;-74
2023/12/28 05:23:05;;;;;;;3.60;3.00;;;16.80;69.60;;;;;;5054951;28;20454;-74
2023/12/28 05:25:33;;;;;;;6.73;3.17;;;16.80;69.50;;;;;;5059309;28;20909;-75
2023/12/28 05:28:01;;;;;;;3.57;3.27;;;16.80;69.70;;;;;;5059114;28;20482;-75
2023/12/28 05:30:29;;;;;;;3.20;2.90;;;16.80;69.70;;;;;;5061046;28;20447;-75
2023/12/28 05:32:57;;;;;;;6.10;2.83;;;16.80;69.60;;;;;;5055076;28;20466;-75
2023/12/28 05:35:25;;;;;;;3.30;3.00;;;16.80;69.60;;;;;;5061792;28;20431;-75
2023/12/28 05:37:55;;;;;;;4.63;2.97;;;16.80;69.50;;;;;;5052960;28;20446;-74
2023/12/28 05:40:23;;;;;;;7.10;3.20;;;16.80;69.70;;;;;;5053181;28;20431;-75
2023/12/28 05:42:51;;;;;;;2.90;2.63;;;16.80;69.70;;;;;;5057110;28;20461;-75
2023/12/28 05:45:19;;;;;;;4.73;2.83;;;16.80;69.60;;;;;;5067933;28;20457;-75
2023/12/28 05:47:47;;;;;;;8.77;3.20;;;16.90;69.60;;;;;;5064482;28;20515;-74
2023/12/28 05:50:16;;;;;;;3.17;2.87;;;16.90;69.80;;;;;;5060644;28;20456;-75
2023/12/28 05:52:44;;;;;;;3.50;3.00;;;16.90;69.70;;;;;;5061705;28;20507;-74
2023/12/28 05:55:14;;;;;;;2.93;2.63;;;16.90;69.70;;;;;;5069611;28;20447;-74
2023/12/28 05:57:42;;;;;;;3.67;2.73;;;16.90;69.70;;;;;;5061439;28;20462;-75
2023/12/28 06:00:10;;;;;;;8.77;3.60;;;16.90;69.50;;;;;;5062448;28;20442;-74
2023/12/28 06:02:38;;;;;;;6.33;3.00;;;17.00;69.60;;;;;;5067803;28;20476;-74
2023/12/28 06:05:06;;;;;;;7.17;2.80;;;17.00;69.50;;;;;;5063621;28;20628;-75
2023/12/28 06:07:35;;;;;;;5.63;2.70;;;17.00;69.60;;;;;;5067594;28;20500;-74
2023/12/28 06:10:05;;;;;;;5.03;2.40;;;17.00;69.50;;;;;;5058686;28;20465;-75
2023/12/28 06:12:34;;;;;;;3.30;2.87;;;17.00;69.50;;;;;;5053762;28;20507;-75
2023/12/28 06:15:03;;;;;;;3.03;2.67;;;17.10;69.50;;;;;;5074169;28;20433;-75
2023/12/28 06:17:31;;;;;;;3.60;2.63;;;17.00;69.30;;;;;;5069047;28;20465;-75
2023/12/28 06:20:02;;;;;;;4.50;2.97;;;17.10;69.60;;;;;;5065498;28;20457;-75
2023/12/28 06:22:30;;;;;;;3.47;2.90;;;17.10;69.70;;;;;;5068546;28;20437;-75
2023/12/28 06:24:58;;;;;;;2.97;2.70;;;17.10;69.60;;;;;;5070941;28;20474;-75
2023/12/28 06:27:26;;;;;;;9.17;2.80;;;17.10;69.60;;;;;;5061699;28;20500;-75
2023/12/28 06:29:56;;;;;;;6.70;2.60;;;17.10;69.70;;;;;;5068326;28;20434;-75
2023/12/28 06:32:24;;;;;;;6.03;3.00;;;17.10;69.50;;;;;;5066856;28;20493;-75
2023/12/28 06:34:54;;;;;;;3.53;2.60;;;17.10;69.80;;;;;;5065355;28;20450;-75
2023/12/28 06:37:22;;;;;;;8.93;2.83;;;17.20;69.80;;;;;;5066258;28;20449;-76
2023/12/28 06:39:49;;;;;;;4.50;2.57;;;17.20;69.80;;;;;;5071391;28;20924;-75
2023/12/28 06:42:18;;;;;;;3.50;2.70;;;17.10;69.70;;;;;;5063795;28;20488;-75
2023/12/28 06:45:15;;;;;;;4.10;2.60;;;17.10;69.50;;;;;;5092930;22;20488;-80
2023/12/28 06:48:22;;;;;;;2.93;2.20;;;17.20;69.70;;;;;;5078228;28;20485;-79
2023/12/28 06:51:39;;;;;;;3.57;2.87;;;17.20;69.70;;;;;;5061737;28;20514;-79
2023/12/28 06:54:30;;;;;;;7.77;2.40;;;17.20;69.70;;;;;;5082018;28;20473;-81
2023/12/28 06:57:38;;;;;;;5.43;2.67;;;17.20;69.80;;;;;;5064201;28;20443;-80
2023/12/28 07:00:24;;;;;;;4.03;2.70;;;17.20;69.50;;;;;;5050845;28;20439;-79
2023/12/28 07:03:18;;;;;;;3.57;2.60;;;17.20;69.60;;;;;;5042874;28;20453;-80
2023/12/28 07:06:30;;;;;;;3.07;2.17;;;17.20;69.50;;;;;;5050699;28;20442;-79
2023/12/28 07:09:51;;;;;;;2.80;2.60;;;17.30;69.50;;;;;;5060955;28;20470;-80
2023/12/28 07:13:19;;;;;;;5.27;2.60;;;17.30;69.60;;;;;;5060745;28;20447;-80
2023/12/28 07:16:36;;;;;;;3.07;2.30;;;17.30;69.50;;;;;;5065017;28;20446;-78
2023/12/28 07:19:50;;;;;;;2.73;2.17;;;17.30;69.70;;;;;;5062348;28;20450;-79
2023/12/28 07:22:33;;;;;;;3.47;2.27;;;17.30;69.50;;;;;;4969220;28;20493;-78
2023/12/28 07:31:01;;;;;;;3.70;2.30;;;17.40;69.20;;;;;;4990128;28;20441;-80
2023/12/28 07:33:47;;;;;;;4.40;2.23;;;17.40;69.00;;;;;;5067688;28;20482;-79
2023/12/28 07:36:36;;;;;;;4.00;2.23;;;17.30;69.10;;;;;;5075091;28;20979;-81
2023/12/28 07:39:29;;;;;;;4.40;2.40;;;17.40;69.30;;;;;;5069722;28;20453;-80
2023/12/28 07:42:23;;;;;;;6.30;2.40;;;17.30;69.00;;;;;;5070721;28;20479;-79
2023/12/28 07:45:31;;;;;;;8.00;3.03;;;17.40;69.20;;;;;;5077044;28;20473;-81
2023/12/28 07:52:08;;;;;;;4.83;2.40;;;17.40;68.70;;;;;;5070214;28;20449;-80
2023/12/28 07:54:59;;;;;;;5.27;2.60;;;17.40;68.70;;;;;;5068322;28;20470;-80
2023/12/28 07:57:40;;;;;;;6.23;2.20;;;17.40;68.60;;;;;;5085124;28;20509;-79
2023/12/28 08:00:19;;;;;;;7.50;2.83;;;17.50;68.60;;;;;;5075270;28;20449;-79
2023/12/28 08:07:24;;;;;;;12.43;2.80;;;17.40;68.50;;;;;;4999225;28;20437;-80
2023/12/28 08:10:19;;;;;;;6.20;2.53;;;17.50;68.60;;;;;;4982613;28;20437;-80
2023/12/28 08:16:40;;;;;;;6.43;2.63;;;17.50;68.60;;;;;;4958661;28;20485;-79
2023/12/28 08:19:59;;;;;;;7.27;2.57;;;17.50;68.50;;;;;;5049805;28;20942;-78
2023/12/28 08:22:49;;;;;;;6.00;2.30;;;17.60;68.30;;;;;;5060660;28;20510;-79
2023/12/28 08:29:41;;;;;;;6.47;2.40;;;17.60;67.50;;;;;;5044820;28;20482;-80
2023/12/28 08:32:25;;;;;;;6.60;2.80;;;17.70;68.00;;;;;;5066026;28;20446;-79
2023/12/28 08:35:08;;;;;;;6.20;2.33;;;17.60;67.50;;;;;;5063447;28;20965;-79
2023/12/28 08:37:41;;;;;;;4.73;1.93;;;17.70;67.50;;;;;;5066447;28;20461;-79
2023/12/28 08:40:49;;;;;;;8.47;3.10;;;17.70;67.60;;;;;;5068033;28;20509;-80
2023/12/28 08:43:30;;;;;;;5.50;2.40;;;17.70;67.70;;;;;;5063042;28;20457;-79
2023/12/28 08:46:31;;;;;;;5.40;2.60;;;17.80;67.60;;;;;;5064345;28;20430;-80
2023/12/28 08:49:15;;;;;;;10.20;3.00;;;17.80;67.60;;;;;;5062233;28;20506;-79
2023/12/28 08:55:52;;;;;;;6.00;2.30;;;18.00;67.70;;;;;;5061716;28;20470;-80
2023/12/28 08:59:03;;;;;;;3.43;2.10;;;18.00;67.20;;;;;;5066277;28;20506;-80
2023/12/28 09:02:19;;;;;;;9.20;2.37;;;18.10;67.40;;;;;;4984259;28;20442;-80
2023/12/28 09:05:02;;;;;;;7.43;2.53;;;18.20;67.10;;;;;;4983776;28;20466;-80
2023/12/28 09:07:51;;;;;;;8.87;2.63;;;18.20;66.40;;;;;;4981175;28;20465;-79
2023/12/28 09:10:34;;;;;;;5.47;2.57;;;18.20;66.40;;;;;;4981704;28;20549;-78
2023/12/28 09:13:29;;;;;;;7.83;2.97;;;18.30;66.60;;;;;;4985638;28;20513;-79
2023/12/28 09:16:29;;;;;;;6.80;2.57;;;18.30;66.40;;;;;;4983687;28;20442;-80
2023/12/28 09:19:19;;;;;;;13.20;2.60;;;18.30;66.50;;;;;;4982702;28;20538;-80
2023/12/28 09:21:57;;;;;;;9.23;2.43;;;18.30;66.40;;;;;;4987439;28;20517;-79
2023/12/28 09:27:56;;;;;;;4.30;2.40;;;18.40;66.00;;;;;;5003918;28;20449;-80
2023/12/28 09:31:20;;;;;;;8.37;2.47;;;18.40;65.90;;;;;;5005193;28;20477;-80
2023/12/28 09:34:53;;;;;;;6.27;2.47;;;18.40;65.90;;;;;;4963236;28;20474;-80
2023/12/28 09:38:19;;;;;;;6.40;2.60;;;18.40;66.20;;;;;;4979639;28;20654;-80
2023/12/28 09:41:24;;;;;;;8.50;2.67;;;18.40;66.00;;;;;;4907277;29;20440;-80
2023/12/28 09:44:14;;;;;;;8.13;2.37;;;18.40;65.80;;;;;;5054128;28;20470;-79
2023/12/28 09:47:37;;;;;;;8.03;2.50;;;18.40;65.60;;;;;;5064693;28;20466;-79
2023/12/28 09:50:30;;;;;;;11.33;3.20;;;18.40;65.80;;;;;;5007196;28;20487;-78
2023/12/28 09:53:37;;;;;;;6.40;2.33;;;18.40;66.00;;;;;;5044340;28;20456;-79
2023/12/28 09:56:23;;;;;;;6.13;2.20;;;18.40;66.10;;;;;;5042420;28;20515;-78
2023/12/28 09:59:26;;;;;;;10.27;2.67;;;18.40;65.90;;;;;;5045061;28;20499;-79
2023/12/28 10:06:26;;;;;;;8.23;2.30;;;18.50;66.00;;;;;;4964444;28;20515;-80
2023/12/28 10:17:41;;;;;;;6.87;2.60;;;18.60;66.10;;;;;;4979921;28;20465;-77
2023/12/28 10:24:47;;;;;;;9.97;3.30;;;18.70;66.00;;;;;;5052845;28;20474;-79
2023/12/28 10:27:28;;;;;;;4.27;2.40;;;18.70;66.00;;;;;;4986496;28;20442;-77
2023/12/28 10:29:56;;;;;;;8.90;2.33;;;18.70;65.50;;;;;;5055872;28;20493;-76
2023/12/28 10:32:34;;;;;;;6.13;2.43;;;18.80;65.70;;;;;;5055707;28;20457;-79
2023/12/28 10:35:08;;;;;;;6.37;2.53;;;18.90;65.50;;;;;;5047713;28;20542;-78
2023/12/28 10:37:43;;;;;;;9.00;3.00;;;18.90;65.40;;;;;;5046026;28;20447;-79
2023/12/28 10:40:34;;;;;;;;;;;;;;;;;;;;;
2023/12/28 10:43:33;;;;;;;9.17;2.73;;;19.00;65.10;;;;;;5046247;28;20528;-79
2023/12/28 10:46:05;;;;;;;12.03;3.07;;;19.00;64.90;;;;;;5053518;28;20474;-79
2023/12/28 10:48:44;;;;;;;9.60;2.80;;;19.00;65.00;;;;;;5050726;28;20451;-78
2023/12/28 10:51:23;;;;;;;4.13;2.33;;;19.00;65.00;;;;;;5047044;28;20453;-80
2023/12/28 10:53:59;;;;;;;13.07;2.93;;;19.00;65.00;;;;;;5047103;28;20486;-79
2023/12/28 10:56:49;;;;;;;11.40;2.90;;;19.00;65.00;;;;;;5049583;28;20435;-79
2023/12/28 10:59:27;;;;;;;7.90;2.27;;;19.00;65.00;;;;;;5051057;28;20435;-78
2023/12/28 11:01:58;;;;;;;8.50;2.60;;;19.00;64.80;;;;;;5053475;28;20460;-78
2023/12/28 11:04:47;;;;;;;9.17;2.87;;;19.00;64.80;;;;;;5047761;28;20482;-79
2023/12/28 11:07:33;;;;;;;5.60;2.80;;;19.00;65.10;;;;;;5052243;28;20447;-79
2023/12/28 11:10:06;;;;;;;8.83;2.90;;;19.10;64.90;;;;;;5065439;28;20521;-80
2023/12/28 11:12:38;;;;;;;9.93;2.77;;;19.10;64.90;;;;;;5058231;28;20439;-80
2023/12/28 11:15:14;;;;;;;7.43;2.70;;;19.10;64.70;;;;;;5057638;28;20490;-79
2023/12/28 11:17:43;;;;;;;9.70;2.90;;;19.10;64.50;;;;;;5055118;28;20452;-79
2023/12/28 11:20:12;;;;;;;6.57;2.57;;;19.10;64.50;;;;;;5061578;28;20538;-77
2023/12/28 11:22:40;;;;;;;10.20;3.03;;;19.10;64.50;;;;;;5056545;28;20455;-80
2023/12/28 11:25:15;;;;;;;12.73;2.60;;;19.10;64.60;;;;;;5059053;28;20466;-81
2023/12/28 11:27:46;;;;;;;14.37;2.67;;;19.10;64.60;;;;;;5058479;28;20446;-78
2023/12/28 11:30:16;;;;;;;7.70;2.70;;;19.10;64.90;;;;;;5053992;28;20467;-80
2023/12/28 11:32:47;;;;;;;11.23;3.20;;;19.10;64.40;;;;;;5059647;28;20446;-78
2023/12/28 11:35:15;;;;;;;13.33;3.40;;;19.20;64.70;;;;;;5065754;28;20469;-79
2023/12/28 11:37:53;;;;;;;8.63;2.40;;;19.10;64.40;;;;;;5057294;28;20513;-79
2023/12/28 11:40:31;;;;;;;10.80;2.90;;;19.10;65.20;;;;;;5073527;28;20438;-77
2023/12/28 11:43:00;;;;;;;10.53;3.40;;;19.20;65.70;;;;;;5049059;28;20464;-80
2023/12/28 11:46:05;;;;;;;12.30;3.60;;;19.20;65.80;;;;;;5059671;28;20449;-79
2023/12/28 11:49:40;;;;;;;7.93;2.77;;;19.20;66.00;;;;;;4986125;28;20427;-79
2023/12/28 11:52:43;;;;;;;7.93;3.00;;;19.20;65.80;;;;;;5048170;28;20512;-80
2023/12/28 11:55:46;;;;;;;15.57;3.80;;;19.20;65.80;;;;;;5061463;28;20465;-78
2023/12/28 11:58:51;;;;;;;12.40;2.97;;;19.20;66.00;;;;;;5054378;28;20489;-79
2023/12/28 12:01:31;;;;;;;13.07;3.20;;;19.10;66.00;;;;;;5050524;28;20446;-79
2023/12/28 12:04:18;;;;;;;9.10;2.70;;;19.10;65.80;;;;;;5053135;28;20539;-81
2023/12/28 12:14:36;;;;;;;13.33;2.77;;;19.10;65.80;;;;;;4957228;29;20425;-79
2023/12/28 12:17:13;;;;;;;9.70;2.93;;;19.10;65.60;;;;;;4958779;29;20473;-79
2023/12/28 12:19:41;;;;;;;11.13;3.30;;;19.10;65.60;;;;;;4973549;28;20481;-78
2023/12/28 12:22:22;;;;;;;10.43;2.70;;;19.10;65.50;;;;;;4981545;28;20531;-78
2023/12/28 12:28:50;;;;;;;7.37;2.80;;;19.10;65.90;;;;;;4970872;28;20449;-82
2023/12/28 12:31:21;;;;;;;9.80;3.10;;;19.00;65.70;;;;;;4972501;28;20466;-82
2023/12/28 12:47:13;;;;;;;9.67;3.07;;;19.10;65.50;;;;;;4980818;28;20467;-80
2023/12/28 12:49:43;;;;;;;9.13;3.07;;;19.10;65.60;;;;;;4973415;28;20499;-78
2023/12/28 12:52:11;;;;;;;15.30;3.70;;;19.10;65.50;;;;;;4973468;28;20454;-81
2023/12/28 12:54:39;;;;;;;10.37;3.00;;;19.10;65.50;;;;;;4985601;28;20466;-79
2023/12/28 12:57:07;;;;;;;10.60;2.87;;;19.10;65.50;;;;;;4996862;28;20445;-80
2023/12/28 13:00:08;;;;;;;6.63;2.57;;;19.10;65.50;;;;;;4976194;28;20962;-81
2023/12/28 13:03:25;;;;;;;4.47;2.60;;;19.10;65.50;;;;;;4969918;28;20430;-82
2023/12/28 13:06:42;;;;;;;7.37;2.33;;;19.10;65.50;;;;;;4973804;28;20480;-84
2023/12/28 13:09:18;;;;;;;10.43;2.70;;;19.10;65.60;;;;;;4973270;28;20468;-82
2023/12/28 13:11:49;;;;;;;7.53;3.47;;;19.00;65.30;;;;;;4971227;28;20504;-78
2023/12/28 13:14:17;;;;;;;6.80;2.70;;;19.00;65.60;;;;;;4971061;28;21388;-78
2023/12/28 13:16:45;;;;;;;9.73;3.00;;;19.00;65.60;;;;;;4967506;28;20458;-78
2023/12/28 13:19:14;;;;;;;12.63;3.10;;;19.00;65.40;;;;;;4966165;28;20443;-78
2023/12/28 13:21:43;;;;;;;8.67;2.80;;;19.00;65.40;;;;;;4964806;28;20442;-78
2023/12/28 13:24:11;;;;;;;7.50;3.03;;;19.00;65.40;;;;;;4966150;28;20477;-78
2023/12/28 13:26:39;;;;;;;7.30;2.80;;;19.00;65.60;;;;;;4970627;28;20521;-78
2023/12/28 13:29:07;;;;;;;11.90;2.73;;;19.00;65.20;;;;;;4971162;28;20474;-80
2023/12/28 13:31:49;;;;;;;6.83;2.80;;;19.00;65.60;;;;;;4969900;28;20537;-81
2023/12/28 13:34:36;;;;;;;6.17;2.77;;;19.10;65.50;;;;;;4968939;28;20444;-80
2023/12/28 13:37:10;;;;;;;11.53;2.73;;;19.00;65.00;;;;;;4972875;28;20452;-80
2023/12/28 13:39:39;;;;;;;7.27;2.27;;;19.00;64.90;;;;;;4972419;28;20442;-79
2023/12/28 13:42:10;;;;;;;8.57;2.70;;;19.00;65.40;;;;;;4976692;28;20442;-80
2023/12/28 13:44:39;;;;;;;14.53;3.30;;;19.10;65.20;;;;;;4975769;28;20497;-79
2023/12/28 13:47:07;;;;;;;8.63;2.87;;;19.10;65.30;;;;;;4976392;28;20457;-79
2023/12/28 13:49:39;;;;;;;11.70;2.90;;;19.20;65.50;;;;;;4975459;28;20442;-76
2023/12/28 13:52:10;;;;;;;8.93;2.70;;;19.10;65.60;;;;;;4971850;28;20474;-79
2023/12/28 13:54:42;;;;;;;5.57;2.90;;;19.30;66.10;;;;;;4973683;28;20541;-79
2023/12/28 13:57:15;;;;;;;8.20;2.77;;;19.40;66.00;;;;;;4972624;28;20493;-78
2023/12/28 13:59:43;;;;;;;14.20;3.33;;;19.40;65.70;;;;;;4970626;28;20448;-78
2023/12/28 14:02:18;;;;;;;7.07;3.00;;;19.40;65.70;;;;;;4968143;28;20450;-77
2023/12/28 14:05:06;;;;;;;12.20;3.80;;;19.40;65.50;;;;;;4966796;28;20475;-78
2023/12/28 14:07:35;;;;;;;20.10;4.20;;;19.40;65.80;;;;;;4965429;28;20454;-74
2023/12/28 14:10:05;;;;;;;16.23;3.83;;;17.80;59.40;;;;;;4966945;28;20455;-74
2023/12/28 14:12:34;;;;;;;18.53;4.30;;;16.00;61.90;;;;;;4970680;28;20566;-75
2023/12/28 14:15:04;;;;;;;13.93;3.53;;;15.40;64.60;;;;;;4970663;28;20482;-75
2023/12/28 14:17:32;;;;;;;19.80;3.90;;;15.00;65.30;;;;;;4967617;28;20486;-82
2023/12/28 14:20:00;;;;;;;14.03;3.27;;;15.20;69.40;;;;;;4964649;28;20541;-77
2023/12/28 14:22:30;;;;;;;13.00;3.60;;;16.10;68.40;;;;;;4963075;28;20447;-76
2023/12/28 14:24:59;;;;;;;14.67;3.87;;;16.80;65.50;;;;;;4969040;28;20513;-76
2023/12/28 14:27:30;;;;;;;10.27;3.03;;;17.30;63.90;;;;;;4970375;28;20473;-76
2023/12/28 14:29:58;;;;;;;17.27;3.90;;;17.70;62.60;;;;;;4956283;28;20451;-77
2023/12/28 14:32:26;;;;;;;15.20;3.00;;;17.90;61.90;;;;;;4970989;28;20532;-77
2023/12/28 14:34:55;;;;;;;10.70;3.10;;;18.10;61.70;;;;;;4972219;28;20474;-78
2023/12/28 14:37:23;;;;;;;10.10;3.00;;;18.30;61.30;;;;;;4966527;28;20457;-79
2023/12/28 14:39:53;;;;;;;9.93;2.87;;;18.40;61.20;;;;;;4968749;28;20537;-76
2023/12/28 14:42:21;;;;;;;15.50;3.80;;;18.50;60.60;;;;;;4967700;28;20534;-77